New Champion — V7GG2 — position and weather

sailwx.info

Track history (hours):
 
Tides and Currents Weather Stations Pressure Air Temp Water Temp Dewpoint Dewpoint Depression Visibility Wind Speed Wind Dir Waves Ship Positions

New Champion

Last reported at 2017-Jan-11 17:27 UTC. Time now 2017-Jan-23 02:37 UTC.
Position N 29°26' W 094°50'.
Warning: this ship's position is 11 days out of date.

Length 228 m; draft 11.4 m.

Type: Ship (hazmat cat A). MMSI: 537985031.

Date/timePositionNaut miles runAvg speedWind from/ knotsBaromVisibWave heightAir tempDewpointWater temp
2017-Jan-11 17:27N 29°26' W 094°50'1011.1
2017-Jan-11 16:34N 29°34' W 094°56'9 8.6
2017-Jan-11 15:34N 29°42' W 095°00'6 5.9
2017-Jan-11 14:34N 29°46' W 095°05'4 4.2
2017-Jan-11 13:34N 29°45' W 095°10'0 0.0
2017-Jan-09 10:04N 29°44' W 095°10'0 0.0
2017-Jan-09 09:26N 29°44' W 095°10'0 0.0
2017-Jan-09 07:29N 29°44' W 095°10'0 0.0
2017-Jan-09 06:28N 29°44' W 095°10'2 2.1
2017-Jan-09 05:30N 29°44' W 095°08'5 5.6
2017-Jan-09 04:33N 29°44' W 095°01'9 9.0
2017-Jan-09 03:34N 29°36' W 094°57'1313.0
2017-Jan-09 02:33N 29°24' W 094°49'  
2017-Jan-03 19:20N 28°19' W 094°24'3713.2
2017-Jan-03 16:31N 27°42' W 094°25'1313.1
2017-Jan-03 15:33N 27°31' W 094°18'8612.4
2017-Jan-03 08:33N 26°22' W 093°20'  
Track history (hours):
 
Tides and Currents Weather Stations Pressure Air Temp Water Temp Dewpoint Dewpoint Depression Visibility Wind Speed Wind Dir Waves Ship Positions

New Champion

Last reported at 2017-Jan-11 17:27 UTC. Time now 2017-Jan-23 02:37 UTC.
Position N 29°26' W 094°50'.
Warning: this ship's position is 11 days out of date.

Length 228 m; draft 11.4 m.

Type: Ship (hazmat cat A). MMSI: 537985031.

Date/timePositionNaut miles runAvg speedWind from/ knotsBaromVisibWave heightAir tempDewpointWater temp
2017-Jan-11 17:27N 29°26' W 094°50'1011.1
2017-Jan-11 16:34N 29°34' W 094°56'9 8.6
2017-Jan-11 15:34N 29°42' W 095°00'6 5.9
2017-Jan-11 14:34N 29°46' W 095°05'4 4.2
2017-Jan-11 13:34N 29°45' W 095°10'0 0.0
2017-Jan-09 10:04N 29°44' W 095°10'0 0.0
2017-Jan-09 09:26N 29°44' W 095°10'0 0.0
2017-Jan-09 07:29N 29°44' W 095°10'0 0.0
2017-Jan-09 06:28N 29°44' W 095°10'2 2.1
2017-Jan-09 05:30N 29°44' W 095°08'5 5.6
2017-Jan-09 04:33N 29°44' W 095°01'9 9.0
2017-Jan-09 03:34N 29°36' W 094°57'1313.0
2017-Jan-09 02:33N 29°24' W 094°49'  
2017-Jan-03 19:20N 28°19' W 094°24'3713.2
2017-Jan-03 16:31N 27°42' W 094°25'1313.1
2017-Jan-03 15:33N 27°31' W 094°18'8612.4
2017-Jan-03 08:33N 26°22' W 093°20'  

Dump ship's entire track history